createdAt,value
2022-08-21T00:00:13.691Z,7.10
2022-08-21T00:02:45.763Z,7.57
2022-08-21T00:05:12.163Z,8.25
2022-08-21T00:07:38.451Z,8.23
2022-08-21T00:10:05.256Z,8.13
2022-08-21T00:12:32.121Z,7.90
2022-08-21T00:14:58.691Z,8.15
2022-08-21T00:17:26.824Z,7.78
2022-08-21T00:19:53.144Z,7.45
2022-08-21T00:22:19.440Z,7.45
2022-08-21T00:24:45.748Z,7.72
2022-08-21T00:27:12.082Z,7.65
2022-08-21T00:29:38.390Z,7.40
2022-08-21T00:32:04.729Z,7.32
2022-08-21T00:34:31.059Z,7.05
2022-08-21T00:36:57.342Z,8.15
2022-08-21T00:39:23.658Z,8.70
2022-08-21T00:41:50.178Z,7.32
2022-08-21T00:44:16.615Z,7.57
2022-08-21T00:46:43.459Z,5.95
2022-08-21T00:49:10.846Z,6.57
2022-08-21T00:51:44.316Z,6.30
2022-08-21T00:54:18.823Z,6.20
2022-08-21T00:56:46.251Z,6.00
2022-08-21T00:59:12.735Z,6.15
2022-08-21T01:01:39.192Z,5.40
2022-08-21T01:04:05.877Z,6.13
2022-08-21T01:06:32.557Z,7.00
2022-08-21T01:08:58.970Z,6.55
2022-08-21T01:11:25.563Z,6.00
2022-08-21T01:13:52.817Z,6.50
2022-08-21T01:16:21.824Z,5.43
2022-08-21T01:18:48.681Z,5.40
2022-08-21T01:21:28.387Z,5.03
2022-08-21T01:23:55.355Z,6.65
2022-08-21T01:26:23.315Z,6.88
2022-08-21T01:29:02.427Z,5.45
2022-08-21T01:31:29.616Z,6.93
2022-08-21T01:33:56.855Z,6.53
2022-08-21T01:36:23.835Z,5.82
2022-08-21T01:38:50.226Z,6.72
2022-08-21T01:41:16.933Z,6.40
2022-08-21T01:43:43.694Z,6.97
2022-08-21T01:46:10.581Z,6.07
2022-08-21T01:48:37.442Z,6.50
2022-08-21T01:51:04.459Z,6.13
2022-08-21T01:53:33.611Z,5.55
2022-08-21T01:56:00.802Z,6.82
2022-08-21T01:58:27.094Z,8.63
2022-08-21T02:00:53.517Z,7.00
2022-08-21T02:03:25.856Z,7.88
2022-08-21T02:06:02.819Z,7.45
2022-08-21T02:08:29.550Z,6.88
2022-08-21T02:10:55.862Z,6.47
2022-08-21T02:13:22.202Z,8.13
2022-08-21T02:15:48.681Z,7.97
2022-08-21T02:18:15.010Z,7.00
2022-08-21T02:20:43.352Z,7.60
2022-08-21T02:23:10.190Z,7.63
2022-08-21T02:25:37.110Z,8.10
2022-08-21T02:28:05.782Z,7.35
2022-08-21T02:30:34.447Z,7.10
2022-08-21T02:33:01.719Z,7.63
2022-08-21T02:35:28.710Z,7.55
2022-08-21T02:37:57.410Z,7.82
2022-08-21T02:40:25.533Z,6.40
2022-08-21T02:42:51.892Z,6.65
2022-08-21T02:45:18.458Z,6.50
2022-08-21T02:47:48.756Z,6.65
2022-08-21T02:50:18.026Z,7.50
2022-08-21T02:52:44.307Z,6.60
2022-08-21T02:55:10.618Z,6.30
2022-08-21T02:57:36.936Z,6.45
2022-08-21T03:00:05.532Z,7.80
2022-08-21T03:02:31.835Z,7.53
2022-08-21T03:04:58.196Z,6.72
2022-08-21T03:07:24.488Z,6.53
2022-08-21T03:09:55.681Z,6.18
2022-08-21T03:12:22.467Z,7.20
2022-08-21T03:14:48.772Z,5.25
2022-08-21T03:17:15.103Z,6.15
2022-08-21T03:19:41.408Z,5.90
2022-08-21T03:22:07.731Z,6.57
2022-08-21T03:24:34.051Z,6.53
2022-08-21T03:27:00.865Z,5.60
2022-08-21T03:29:28.374Z,5.22
2022-08-21T03:31:55.145Z,6.20
2022-08-21T03:34:22.199Z,6.28
2022-08-21T03:36:49.805Z,6.13
2022-08-21T03:39:16.728Z,6.82
2022-08-21T03:41:43.039Z,5.97
2022-08-21T03:44:09.451Z,5.47
2022-08-21T03:46:35.970Z,6.30
2022-08-21T03:49:02.286Z,5.25
2022-08-21T03:51:28.650Z,5.80
2022-08-21T03:53:55.457Z,6.65
2022-08-21T03:56:21.755Z,7.63
2022-08-21T03:58:48.077Z,7.55
2022-08-21T04:01:14.633Z,7.30
2022-08-21T04:03:41.077Z,7.80
2022-08-21T04:06:08.287Z,8.13
2022-08-21T04:08:34.966Z,7.22
2022-08-21T04:11:01.639Z,7.00
2022-08-21T04:13:29.157Z,8.68
2022-08-21T04:15:56.250Z,9.10
2022-08-21T04:18:22.575Z,8.68
2022-08-21T04:20:50.782Z,7.55
2022-08-21T04:23:24.102Z,8.43
2022-08-21T04:25:51.468Z,8.57
2022-08-21T04:28:17.780Z,8.48
2022-08-21T04:30:45.465Z,8.88
2022-08-21T04:33:11.836Z,9.82
2022-08-21T04:35:38.167Z,8.75
2022-08-21T04:38:04.517Z,9.75
2022-08-21T04:40:30.903Z,9.77
2022-08-21T04:43:00.910Z,10.02
2022-08-21T04:45:34.999Z,11.40
2022-08-21T04:48:02.566Z,8.40
2022-08-21T04:50:32.328Z,9.25
2022-08-21T04:52:59.001Z,7.40
2022-08-21T04:55:26.527Z,7.93
2022-08-21T04:57:54.441Z,8.25
2022-08-21T05:00:21.270Z,9.38
2022-08-21T05:02:53.325Z,7.40
2022-08-21T05:05:19.664Z,9.23
2022-08-21T05:07:46.242Z,8.32
2022-08-21T05:10:13.973Z,9.43
2022-08-21T05:12:42.659Z,9.10
2022-08-21T05:15:09.540Z,8.52
2022-08-21T05:17:40.218Z,8.13
2022-08-21T05:20:06.734Z,8.93
2022-08-21T05:22:33.034Z,8.70
2022-08-21T05:24:59.375Z,8.35
2022-08-21T05:27:25.696Z,9.15
2022-08-21T05:29:54.144Z,7.30
2022-08-21T05:32:20.470Z,7.25
2022-08-21T05:34:47.650Z,8.15
2022-08-21T05:37:14.068Z,7.80
2022-08-21T05:40:05.103Z,7.93
2022-08-21T05:42:27.130Z,7.00
2022-08-21T05:44:53.440Z,7.07
2022-08-21T05:47:20.290Z,6.13
2022-08-21T05:49:46.639Z,6.00
2022-08-21T05:52:12.965Z,6.47
2022-08-21T05:54:39.291Z,6.63
2022-08-21T05:57:05.648Z,5.78
2022-08-21T05:59:31.958Z,6.32
2022-08-21T06:02:00.331Z,6.65
2022-08-21T06:04:30.168Z,7.15
2022-08-21T06:06:56.628Z,6.78
2022-08-21T06:09:22.944Z,7.05
2022-08-21T06:11:49.267Z,7.07
2022-08-21T06:14:15.825Z,8.13
2022-08-21T06:16:42.110Z,6.88
2022-08-21T06:19:08.432Z,7.60
2022-08-21T06:21:34.813Z,6.70
2022-08-21T06:24:01.158Z,6.45
2022-08-21T06:26:27.558Z,6.97
2022-08-21T06:28:54.575Z,5.85
2022-08-21T06:31:22.776Z,6.53
2022-08-21T06:33:49.473Z,6.90
2022-08-21T06:36:16.275Z,4.85
2022-08-21T06:38:50.770Z,5.25
2022-08-21T06:41:18.187Z,5.38
2022-08-21T06:43:51.228Z,5.25
2022-08-21T06:46:17.765Z,5.05
2022-08-21T06:48:44.124Z,4.68
2022-08-21T06:51:10.526Z,5.78
2022-08-21T06:53:36.862Z,5.80
2022-08-21T06:56:03.550Z,5.63
2022-08-21T06:58:30.007Z,5.72
2022-08-21T07:01:00.254Z,6.20
2022-08-21T07:03:28.772Z,5.43
2022-08-21T07:05:55.364Z,5.75
2022-08-21T07:08:22.062Z,5.88
2022-08-21T07:10:49.196Z,4.75
2022-08-21T07:13:15.590Z,6.05
2022-08-21T07:15:42.131Z,5.78
2022-08-21T07:18:08.455Z,5.53
2022-08-21T07:20:34.880Z,5.55
2022-08-21T07:23:03.085Z,5.50
2022-08-21T07:25:29.455Z,5.18
2022-08-21T07:27:56.275Z,4.03
2022-08-21T07:30:22.938Z,5.05
2022-08-21T07:32:52.126Z,5.10
2022-08-21T07:35:19.599Z,4.82
2022-08-21T07:37:46.179Z,4.15
2022-08-21T07:40:12.963Z,4.75
2022-08-21T07:42:42.998Z,4.85
2022-08-21T07:45:09.528Z,4.78
2022-08-21T07:47:42.075Z,4.10
2022-08-21T07:50:09.313Z,5.55
2022-08-21T07:52:35.666Z,4.45
2022-08-21T07:55:06.535Z,4.05
2022-08-21T07:57:33.267Z,3.97
2022-08-21T07:59:59.778Z,4.30
2022-08-21T08:02:27.092Z,4.00
2022-08-21T08:04:53.938Z,4.68
2022-08-21T08:07:20.361Z,5.50
2022-08-21T08:09:46.780Z,4.63
2022-08-21T08:12:13.093Z,4.70
2022-08-21T08:14:39.440Z,6.35
2022-08-21T08:17:05.738Z,5.13
2022-08-21T08:19:32.499Z,5.82
2022-08-21T08:21:59.035Z,5.78
2022-08-21T08:24:25.402Z,4.97
2022-08-21T08:26:53.822Z,5.30
2022-08-21T08:29:21.381Z,5.28
2022-08-21T08:31:47.686Z,8.13
2022-08-21T08:34:25.211Z,5.07
2022-08-21T08:36:52.100Z,5.95
2022-08-21T08:39:26.831Z,4.90
2022-08-21T08:42:33.161Z,5.93
2022-08-21T08:45:08.923Z,5.05
2022-08-21T08:47:39.833Z,5.78
2022-08-21T08:50:12.031Z,5.43
2022-08-21T08:52:43.555Z,4.82
2022-08-21T08:58:40.210Z,4.95
2022-08-21T09:01:08.861Z,5.97
2022-08-21T09:03:35.674Z,5.18
2022-08-21T09:06:04.830Z,3.83
2022-08-21T09:08:50.183Z,4.35
2022-08-21T09:11:19.544Z,4.07
2022-08-21T09:13:58.283Z,4.63
2022-08-21T09:16:33.127Z,2.77
2022-08-21T09:19:14.686Z,2.30
2022-08-21T09:21:51.884Z,2.45
2022-08-21T09:24:23.749Z,4.07
2022-08-21T09:26:50.026Z,3.33
2022-08-21T09:29:18.386Z,2.85
2022-08-21T09:31:44.688Z,2.42
2022-08-21T09:34:13.004Z,2.08
2022-08-21T09:36:44.029Z,2.13
2022-08-21T09:39:11.802Z,1.48
2022-08-21T09:41:39.014Z,1.52
2022-08-21T09:44:06.592Z,2.30
2022-08-21T09:46:33.356Z,2.47
2022-08-21T09:49:02.288Z,2.13
2022-08-21T09:51:32.739Z,1.60
2022-08-21T09:54:10.839Z,2.05
2022-08-21T09:56:57.306Z,1.38
2022-08-21T09:59:30.843Z,1.48
2022-08-21T10:02:02.290Z,2.13
2022-08-21T10:04:31.101Z,2.20
2022-08-21T10:07:07.044Z,1.40
2022-08-21T10:09:33.616Z,2.05
2022-08-21T10:12:11.028Z,1.73
2022-08-21T10:14:54.762Z,1.30
2022-08-21T10:17:21.055Z,1.50
2022-08-21T10:19:52.574Z,1.67
2022-08-21T10:22:30.966Z,1.65
2022-08-21T10:25:09.574Z,2.35
2022-08-21T10:27:40.855Z,2.03
2022-08-21T10:30:09.300Z,1.50
2022-08-21T10:32:38.608Z,1.60
2022-08-21T10:35:08.019Z,1.83
2022-08-21T10:37:48.648Z,1.63
2022-08-21T10:40:20.909Z,2.35
2022-08-21T10:42:57.586Z,1.27
2022-08-21T10:45:33.590Z,1.13
2022-08-21T10:48:08.853Z,1.38
2022-08-21T10:50:45.503Z,1.27
2022-08-21T10:53:17.127Z,1.00
2022-08-21T10:55:46.216Z,1.80
2022-08-21T10:58:14.989Z,1.13
2022-08-21T11:00:44.406Z,1.08
2022-08-21T11:05:43.999Z,1.17
2022-08-21T11:08:16.747Z,1.30
2022-08-21T11:10:59.962Z,0.73
2022-08-21T11:13:31.667Z,1.35
2022-08-21T11:15:58.095Z,0.70
2022-08-21T11:18:24.534Z,1.70
2022-08-21T11:21:13.922Z,1.60
2022-08-21T11:26:11.873Z,1.13
2022-08-21T11:28:48.778Z,1.05
2022-08-21T11:31:15.116Z,1.67
2022-08-21T11:33:47.312Z,2.00
2022-08-21T11:36:18.553Z,1.08
2022-08-21T11:38:54.056Z,0.70
2022-08-21T11:41:25.353Z,1.15
2022-08-21T11:43:52.124Z,0.95
2022-08-21T11:46:41.669Z,1.48
2022-08-21T11:49:07.924Z,0.88
2022-08-21T11:51:45.481Z,0.68
2022-08-21T11:54:34.524Z,0.70
2022-08-21T11:59:36.518Z,0.93
2022-08-21T12:02:09.977Z,0.47
2022-08-21T12:04:42.904Z,0.30
2022-08-21T12:07:14.810Z,0.90
2022-08-21T12:09:41.115Z,1.10
2022-08-21T12:12:11.969Z,0.68
2022-08-21T12:14:38.580Z,0.40
2022-08-21T12:17:06.461Z,0.85
2022-08-21T12:19:35.932Z,1.42
2022-08-21T12:22:02.258Z,0.60
2022-08-21T12:24:28.505Z,1.50
2022-08-21T12:26:56.403Z,0.55
2022-08-21T12:29:31.008Z,0.20
2022-08-21T12:32:01.689Z,0.40
2022-08-21T12:34:36.344Z,0.68
2022-08-21T12:37:08.192Z,0.30
2022-08-21T12:39:37.186Z,0.60
2022-08-21T12:42:06.563Z,0.30
2022-08-21T12:44:42.141Z,0.70
2022-08-21T12:47:17.071Z,0.45
2022-08-21T12:50:07.136Z,0.60
2022-08-21T12:52:39.139Z,1.13
2022-08-21T12:55:06.623Z,0.47
2022-08-21T12:57:32.946Z,0.30
2022-08-21T13:00:00.796Z,0.40
2022-08-21T13:02:32.726Z,0.40
2022-08-21T13:04:59.473Z,0.85
2022-08-21T13:07:34.031Z,0.70
2022-08-21T13:10:19.027Z,0.57
2022-08-21T13:12:46.140Z,0.20
2022-08-21T13:15:13.210Z,0.47
2022-08-21T13:17:45.403Z,0.45
2022-08-21T13:20:21.171Z,0.20
2022-08-21T13:22:47.504Z,0.63
2022-08-21T13:25:15.715Z,0.70
2022-08-21T13:27:42.396Z,0.30
2022-08-21T13:30:11.994Z,1.15
2022-08-21T13:32:41.867Z,0.95
2022-08-21T13:35:19.124Z,0.35
2022-08-21T13:37:46.463Z,0.55
2022-08-21T13:40:19.666Z,0.25
2022-08-21T13:42:47.018Z,0.60
2022-08-21T13:45:23.842Z,0.32
2022-08-21T13:47:50.879Z,0.25
2022-08-21T13:50:19.588Z,0.52
2022-08-21T13:52:48.248Z,1.13
2022-08-21T13:55:17.310Z,0.70
2022-08-21T13:57:43.696Z,0.30
2022-08-21T14:00:20.194Z,0.55
2022-08-21T14:02:48.921Z,0.93
2022-08-21T14:05:17.242Z,0.10
2022-08-21T14:10:20.945Z,0.50
2022-08-21T14:12:49.692Z,0.10
2022-08-21T14:15:17.649Z,0.40
2022-08-21T14:17:44.690Z,0.55
2022-08-21T14:20:13.666Z,0.45
2022-08-21T14:22:39.990Z,0.98
2022-08-21T14:25:09.514Z,0.38
2022-08-21T14:27:39.052Z,0.10
2022-08-21T14:30:10.967Z,0.40
2022-08-21T14:32:44.904Z,0.38
2022-08-21T14:35:13.232Z,0.50
2022-08-21T14:37:42.775Z,0.45
2022-08-21T14:40:09.548Z,0.43
2022-08-21T14:42:35.943Z,0.63
2022-08-21T14:45:09.279Z,0.43
2022-08-21T14:47:35.617Z,0.65
2022-08-21T14:50:01.944Z,0.20
2022-08-21T14:52:28.232Z,0.98
2022-08-21T14:54:54.898Z,0.40
2022-08-21T14:57:21.265Z,0.50
2022-08-21T14:59:47.647Z,0.40
2022-08-21T15:02:13.966Z,0.30
2022-08-21T15:04:40.324Z,1.38
2022-08-21T15:07:06.665Z,0.20
2022-08-21T15:09:32.996Z,0.28
2022-08-21T15:12:01.404Z,0.20
2022-08-21T15:14:29.017Z,0.95
2022-08-21T15:16:55.358Z,0.15
2022-08-21T15:19:21.790Z,0.40
2022-08-21T15:21:49.394Z,0.60
2022-08-21T15:24:16.201Z,0.22
2022-08-21T15:26:43.477Z,0.20
2022-08-21T15:29:10.757Z,0.35
2022-08-21T15:31:37.354Z,0.32
2022-08-21T15:34:04.364Z,0.13
2022-08-21T15:36:31.252Z,0.52
2022-08-21T15:38:57.589Z,0.60
2022-08-21T15:41:24.043Z,0.10
2022-08-21T15:43:52.277Z,0.20
2022-08-21T15:46:19.382Z,0.00
2022-08-21T15:48:47.079Z,0.38
2022-08-21T15:51:14.427Z,0.22
2022-08-21T15:53:41.095Z,0.37
2022-08-21T15:56:13.334Z,0.30
2022-08-21T15:58:39.757Z,0.05
2022-08-21T16:01:06.250Z,0.30
2022-08-21T16:03:32.815Z,0.38
2022-08-21T16:05:59.141Z,0.45
2022-08-21T16:08:25.958Z,0.52
2022-08-21T16:10:53.030Z,0.20
2022-08-21T16:13:26.539Z,0.30
2022-08-21T16:15:53.098Z,0.30
2022-08-21T16:18:20.565Z,0.63
2022-08-21T16:20:47.302Z,0.80
2022-08-21T16:23:13.635Z,0.03
2022-08-21T16:25:40.073Z,0.20
2022-08-21T16:28:07.999Z,0.20
2022-08-21T16:30:36.902Z,0.65
2022-08-21T16:33:04.328Z,0.00
2022-08-21T16:35:31.406Z,0.00
2022-08-21T16:37:58.062Z,0.30
2022-08-21T16:40:27.088Z,0.32
2022-08-21T16:42:53.508Z,0.15
2022-08-21T16:45:21.262Z,0.38
2022-08-21T16:47:47.896Z,0.20
2022-08-21T16:50:16.142Z,0.00
2022-08-21T16:52:43.178Z,0.35
2022-08-21T16:55:09.753Z,0.15
2022-08-21T16:57:37.457Z,0.22
2022-08-21T17:02:44.866Z,0.22
2022-08-21T17:05:14.011Z,0.05
2022-08-21T17:07:43.777Z,0.90
2022-08-21T17:10:12.412Z,0.20
2022-08-21T17:15:07.048Z,0.30
2022-08-21T17:17:34.144Z,0.30
2022-08-21T17:20:00.502Z,0.93
2022-08-21T17:22:26.819Z,0.20
2022-08-21T17:24:54.480Z,0.10
2022-08-21T17:27:23.278Z,0.25
2022-08-21T17:29:54.592Z,0.10
2022-08-21T17:32:21.295Z,0.30
2022-08-21T17:34:47.670Z,0.10
2022-08-21T17:37:14.583Z,0.32
2022-08-21T17:39:40.936Z,0.60
2022-08-21T17:42:09.608Z,0.40
2022-08-21T17:44:40.655Z,0.50
2022-08-21T17:47:07.478Z,0.40
2022-08-21T17:49:34.334Z,0.22
2022-08-21T17:52:00.751Z,0.50
2022-08-21T17:54:27.592Z,0.50
2022-08-21T17:56:55.331Z,0.30
2022-08-21T17:59:22.887Z,1.08
2022-08-21T18:01:49.619Z,0.30
2022-08-21T18:04:16.183Z,0.25
2022-08-21T18:06:46.863Z,0.20
2022-08-21T18:09:13.531Z,0.45
2022-08-21T18:11:40.658Z,0.30
2022-08-21T18:14:08.011Z,0.93
2022-08-21T18:16:35.331Z,0.22
2022-08-21T18:19:02.109Z,0.50
2022-08-21T18:21:28.970Z,0.20
2022-08-21T18:23:55.695Z,0.10
2022-08-21T18:26:26.642Z,0.10
2022-08-21T18:28:53.035Z,0.30
2022-08-21T18:31:19.782Z,0.55
2022-08-21T18:33:58.546Z,0.50
2022-08-21T18:36:25.926Z,0.20
2022-08-21T18:38:52.789Z,0.70
2022-08-21T18:41:19.088Z,0.30
2022-08-21T18:43:45.494Z,0.22
2022-08-21T18:46:11.838Z,0.20
2022-08-21T18:48:38.187Z,0.30
2022-08-21T18:51:04.610Z,0.35
2022-08-21T18:53:33.802Z,0.53
2022-08-21T18:56:05.369Z,1.73
2022-08-21T18:58:32.376Z,0.55
2022-08-21T19:00:58.721Z,0.20
2022-08-21T19:03:25.238Z,0.47
2022-08-21T19:05:52.577Z,0.60
2022-08-21T19:08:21.474Z,0.98
2022-08-21T19:10:48.563Z,1.00
2022-08-21T19:13:15.978Z,0.65
2022-08-21T19:15:43.274Z,1.65
2022-08-21T19:18:11.025Z,0.50
2022-08-21T19:20:41.446Z,0.52
2022-08-21T19:23:09.434Z,1.00
2022-08-21T19:25:36.356Z,0.65
2022-08-21T19:28:11.372Z,0.88
2022-08-21T19:30:39.167Z,2.17
2022-08-21T19:33:06.987Z,0.50
2022-08-21T19:35:34.187Z,0.85
2022-08-21T19:38:01.736Z,0.90
2022-08-21T19:40:28.105Z,1.33
2022-08-21T19:42:54.622Z,0.90
2022-08-21T19:45:21.865Z,0.70
2022-08-21T19:47:54.977Z,0.80
2022-08-21T19:50:21.957Z,0.43
2022-08-21T19:52:51.640Z,0.70
2022-08-21T19:55:18.417Z,0.70
2022-08-21T19:57:45.892Z,0.52
2022-08-21T20:00:12.559Z,0.43
2022-08-21T20:02:39.674Z,0.82
2022-08-21T20:05:14.332Z,0.70
2022-08-21T20:07:40.634Z,0.98
2022-08-21T20:10:07.091Z,0.82
2022-08-21T20:12:40.485Z,1.02
2022-08-21T20:15:07.613Z,0.90
2022-08-21T20:17:35.144Z,0.82
2022-08-21T20:20:01.643Z,0.98
2022-08-21T20:22:28.744Z,1.02
2022-08-21T20:24:55.837Z,2.00
2022-08-21T20:27:23.960Z,1.00
2022-08-21T20:29:50.423Z,1.20
2022-08-21T20:32:17.140Z,1.17
2022-08-21T20:37:36.671Z,1.63
2022-08-21T20:40:07.793Z,0.85
2022-08-21T20:42:34.221Z,0.98
2022-08-21T20:45:01.239Z,1.13
2022-08-21T20:47:29.066Z,1.48
2022-08-21T20:49:57.594Z,2.25
2022-08-21T20:52:26.480Z,1.58
2022-08-21T20:54:56.207Z,1.52
2022-08-21T20:57:22.589Z,1.63
2022-08-21T20:59:49.991Z,2.58
2022-08-21T21:02:16.319Z,1.52
2022-08-21T21:05:00.121Z,3.58
2022-08-21T21:07:36.636Z,1.60
2022-08-21T21:10:05.391Z,2.45
2022-08-21T21:12:37.624Z,2.10
2022-08-21T21:15:09.984Z,2.08
2022-08-21T21:17:41.511Z,1.67
2022-08-21T21:20:14.933Z,1.83
2022-08-21T21:22:49.568Z,2.25
2022-08-21T21:25:19.417Z,3.03
2022-08-21T21:27:50.790Z,1.75
2022-08-21T21:30:20.907Z,1.58
2022-08-21T21:32:47.609Z,1.70
2022-08-21T21:35:15.258Z,1.85
2022-08-21T21:37:44.435Z,1.75
2022-08-21T21:40:13.820Z,2.28
2022-08-21T21:42:40.097Z,1.48
2022-08-21T21:45:16.638Z,1.42
2022-08-21T21:47:44.236Z,1.02
2022-08-21T21:50:27.756Z,1.70
2022-08-21T21:53:12.303Z,1.20
2022-08-21T21:55:41.801Z,1.20
2022-08-21T21:58:16.710Z,2.55
2022-08-21T22:00:52.070Z,1.75
2022-08-21T22:03:23.992Z,1.10
2022-08-21T22:05:58.011Z,1.67
2022-08-21T22:08:48.853Z,1.10
2022-08-21T22:11:29.337Z,1.88
2022-08-21T22:14:05.111Z,1.88
2022-08-21T22:16:32.394Z,1.20
2022-08-21T22:19:01.845Z,1.98
2022-08-21T22:24:22.976Z,1.80
2022-08-21T22:26:52.095Z,1.48
2022-08-21T22:29:19.818Z,2.08
2022-08-21T22:32:00.956Z,2.63
2022-08-21T22:34:31.999Z,2.60
2022-08-21T22:37:00.961Z,2.13
2022-08-21T22:39:33.100Z,2.20
2022-08-21T22:42:31.220Z,3.08
2022-08-21T22:44:59.613Z,2.92
2022-08-21T22:47:31.583Z,1.98
2022-08-21T22:52:47.295Z,2.35
2022-08-21T22:55:46.484Z,2.80
2022-08-21T22:58:20.794Z,1.98
2022-08-21T23:00:53.670Z,2.25
2022-08-21T23:03:23.478Z,3.65
2022-08-21T23:05:50.361Z,2.72
2022-08-21T23:08:30.002Z,2.17
2022-08-21T23:10:58.397Z,2.30
2022-08-21T23:13:24.718Z,1.63
2022-08-21T23:15:50.989Z,2.47
2022-08-21T23:18:21.906Z,2.17
2022-08-21T23:23:46.298Z,2.38
2022-08-21T23:26:26.214Z,1.95
2022-08-21T23:29:02.987Z,2.65
2022-08-21T23:31:36.004Z,2.50
2022-08-21T23:34:10.324Z,2.10
2022-08-21T23:37:01.538Z,1.92
2022-08-21T23:39:51.675Z,2.03
2022-08-21T23:42:45.668Z,1.95
2022-08-21T23:45:22.794Z,2.20
2022-08-21T23:48:19.702Z,2.38
2022-08-21T23:50:55.600Z,2.38
2022-08-21T23:53:24.681Z,1.70
2022-08-21T23:56:09.319Z,2.60
2022-08-21T23:58:52.935Z,2.90
